createdAt,value
2022-08-28T00:01:28.601Z,96071.13
2022-08-28T00:03:56.108Z,96069.75
2022-08-28T00:06:24.967Z,96073.22
2022-08-28T00:08:52.497Z,96078.97
2022-08-28T00:11:21.056Z,96076.22
2022-08-28T00:13:48.943Z,96069.78
2022-08-28T00:16:17.995Z,96070.28
2022-08-28T00:18:47.067Z,96065.56
2022-08-28T00:21:15.068Z,96071.75
2022-08-28T00:23:43.912Z,96067.38
2022-08-28T00:26:31.723Z,96067.19
2022-08-28T00:28:58.247Z,96060.44
2022-08-28T00:31:25.754Z,96063.72
2022-08-28T00:33:53.319Z,96070.50
2022-08-28T00:36:20.871Z,96069.72
2022-08-28T00:38:49.675Z,96065.22
2022-08-28T00:41:17.424Z,96065.28
2022-08-28T00:43:52.332Z,96061.59
2022-08-28T00:46:22.849Z,96065.75
2022-08-28T00:48:51.373Z,96069.44
2022-08-28T00:51:35.091Z,96066.97
2022-08-28T00:54:07.527Z,96071.63
2022-08-28T00:56:35.747Z,96067.88
2022-08-28T00:59:08.925Z,96067.88
2022-08-28T01:01:38.738Z,96069.66
2022-08-28T01:04:06.678Z,96065.50
2022-08-28T01:06:34.563Z,96063.06
2022-08-28T01:09:02.150Z,96071.63
2022-08-28T01:11:32.312Z,96065.50
2022-08-28T01:14:03.225Z,96066.16
2022-08-28T01:16:34.284Z,96070.09
2022-08-28T01:19:03.397Z,96070.53
2022-08-28T01:21:40.233Z,96069.50
2022-08-28T01:24:12.070Z,96068.66
2022-08-28T01:26:39.605Z,96060.75
2022-08-28T01:29:08.454Z,96066.84
2022-08-28T01:31:38.504Z,96074.44
2022-08-28T01:34:06.815Z,96071.75
2022-08-28T01:36:34.652Z,96078.41
2022-08-28T01:39:05.934Z,96074.25
2022-08-28T01:41:35.444Z,96069.53
2022-08-28T01:44:03.042Z,96072.66
2022-08-28T01:46:31.651Z,96079.63
2022-08-28T01:48:59.473Z,96076.56
2022-08-28T01:51:28.512Z,96072.50
2022-08-28T01:54:02.629Z,96083.03
2022-08-28T01:56:30.756Z,96075.28
2022-08-28T01:58:59.795Z,96085.59
2022-08-28T02:01:27.333Z,96075.84
2022-08-28T02:03:55.058Z,96083.81
2022-08-28T02:06:23.012Z,96090.84
2022-08-28T02:08:54.620Z,96088.91
2022-08-28T02:11:23.803Z,96085.31
2022-08-28T02:13:52.322Z,96082.91
2022-08-28T02:16:23.196Z,96075.78
2022-08-28T02:18:50.723Z,96074.44
2022-08-28T02:21:18.232Z,96078.78
2022-08-28T02:23:46.189Z,96074.25
2022-08-28T02:26:15.252Z,96077.97
2022-08-28T02:28:43.311Z,96069.88
2022-08-28T02:31:11.684Z,96068.78
2022-08-28T02:33:43.495Z,96067.06
2022-08-28T02:36:13.182Z,96080.22
2022-08-28T02:38:41.160Z,96073.63
2022-08-28T02:41:10.052Z,96070.69
2022-08-28T02:43:37.659Z,96082.00
2022-08-28T02:46:06.270Z,96072.34
2022-08-28T02:48:36.498Z,96076.53
2022-08-28T02:51:08.987Z,96070.47
2022-08-28T02:53:37.423Z,96076.72
2022-08-28T02:56:05.995Z,96087.06
2022-08-28T02:58:34.545Z,96076.56
2022-08-28T03:01:03.430Z,96076.78
2022-08-28T03:03:32.450Z,96075.97
2022-08-28T03:06:00.610Z,96079.78
2022-08-28T03:08:30.071Z,96081.16
2022-08-28T03:10:57.629Z,96080.00
2022-08-28T03:13:27.269Z,96074.63
2022-08-28T03:15:56.236Z,96072.19
2022-08-28T03:18:25.287Z,96072.00
2022-08-28T03:20:53.748Z,96070.00
2022-08-28T03:23:26.305Z,96066.19
2022-08-28T03:25:56.501Z,96080.75
2022-08-28T03:28:25.007Z,96080.84
2022-08-28T03:30:52.655Z,96083.16
2022-08-28T03:33:21.279Z,96073.53
2022-08-28T03:35:49.213Z,96083.97
2022-08-28T03:38:17.157Z,96081.72
2022-08-28T03:40:46.744Z,96081.41
2022-08-28T03:43:18.845Z,96087.44
2022-08-28T03:45:58.749Z,96082.56
2022-08-28T03:48:28.484Z,96092.63
2022-08-28T03:50:57.304Z,96092.28
2022-08-28T03:53:27.491Z,96094.06
2022-08-28T03:55:56.213Z,96090.22
2022-08-28T03:58:26.449Z,96092.13
2022-08-28T04:00:54.512Z,96101.09
2022-08-28T04:03:22.463Z,96102.03
2022-08-28T04:05:49.990Z,96098.41
2022-08-28T04:08:19.404Z,96106.16
2022-08-28T04:10:48.505Z,96108.31
2022-08-28T04:13:17.826Z,96101.94
2022-08-28T04:15:47.153Z,96108.03
2022-08-28T04:18:14.922Z,96098.53
2022-08-28T04:20:42.556Z,96112.06
2022-08-28T04:23:14.098Z,96104.00
2022-08-28T04:25:41.744Z,96112.47
2022-08-28T04:28:09.294Z,96121.78
2022-08-28T04:30:36.839Z,96120.75
2022-08-28T04:33:06.130Z,96117.19
2022-08-28T04:35:33.670Z,96115.53
2022-08-28T04:38:02.528Z,96116.16
2022-08-28T04:40:33.009Z,96123.81
2022-08-28T04:43:00.536Z,96124.31
2022-08-28T04:45:28.084Z,96121.84
2022-08-28T04:47:55.628Z,96116.47
2022-08-28T04:50:25.247Z,96117.25
2022-08-28T04:52:53.167Z,96129.47
2022-08-28T04:55:40.080Z,96128.50
2022-08-28T04:58:08.256Z,96126.75
2022-08-28T05:00:37.799Z,96130.88
2022-08-28T05:03:05.717Z,96121.16
2022-08-28T05:05:35.016Z,96137.47
2022-08-28T05:08:02.649Z,96133.34
2022-08-28T05:10:30.492Z,96126.75
2022-08-28T05:12:57.960Z,96138.72
2022-08-28T05:15:25.459Z,96132.09
2022-08-28T05:17:52.961Z,96137.84
2022-08-28T05:20:20.453Z,96138.22
2022-08-28T05:22:49.317Z,96140.56
2022-08-28T05:25:17.015Z,96151.94
2022-08-28T05:27:44.482Z,96155.66
2022-08-28T05:30:13.115Z,96157.78
2022-08-28T05:32:43.040Z,96170.56
2022-08-28T05:35:10.723Z,96163.53
2022-08-28T05:37:38.180Z,96170.31
2022-08-28T05:40:10.479Z,96169.13
2022-08-28T05:42:39.151Z,96171.56
2022-08-28T05:45:08.060Z,96172.38
2022-08-28T05:47:35.654Z,96174.06
2022-08-28T05:50:03.165Z,96174.22
2022-08-28T05:52:30.651Z,96171.38
2022-08-28T05:54:58.534Z,96168.34
2022-08-28T05:57:27.363Z,96180.81
2022-08-28T05:59:54.838Z,96171.28
2022-08-28T06:02:22.646Z,96184.75
2022-08-28T06:04:50.256Z,96186.00
2022-08-28T06:07:18.088Z,96178.69
2022-08-28T06:09:45.746Z,96173.28
2022-08-28T06:12:13.665Z,96180.34
2022-08-28T06:14:43.401Z,96184.94
2022-08-28T06:17:12.477Z,96185.25
2022-08-28T06:19:41.687Z,96183.94
2022-08-28T06:22:12.047Z,96186.88
2022-08-28T06:24:39.693Z,96196.91
2022-08-28T06:27:07.186Z,96189.63
2022-08-28T06:29:34.750Z,96183.13
2022-08-28T06:32:05.393Z,96185.19
2022-08-28T06:34:33.140Z,96184.56
2022-08-28T06:37:00.862Z,96180.59
2022-08-28T06:39:28.376Z,96188.75
2022-08-28T06:41:55.902Z,96179.50
2022-08-28T06:44:23.916Z,96181.47
2022-08-28T06:46:53.891Z,96184.59
2022-08-28T06:49:22.777Z,96185.16
2022-08-28T06:51:50.377Z,96190.22
2022-08-28T06:54:22.941Z,96194.19
2022-08-28T06:56:51.255Z,96191.94
2022-08-28T06:59:18.821Z,96195.00
2022-08-28T07:01:46.345Z,96206.13
2022-08-28T07:04:14.439Z,96208.44
2022-08-28T07:06:46.902Z,96206.22
2022-08-28T07:09:15.250Z,96208.81
2022-08-28T07:11:46.487Z,96208.09
2022-08-28T07:14:14.042Z,96210.91
2022-08-28T07:16:41.740Z,96214.44
2022-08-28T07:19:11.954Z,96214.06
2022-08-28T07:21:41.638Z,96217.53
2022-08-28T07:24:12.884Z,96203.78
2022-08-28T07:26:41.802Z,96199.59
2022-08-28T07:29:11.438Z,96208.63
2022-08-28T07:31:41.104Z,96203.63
2022-08-28T07:34:09.646Z,96214.47
2022-08-28T07:36:37.728Z,96208.03
2022-08-28T07:39:05.996Z,96218.69
2022-08-28T07:41:39.009Z,96225.00
2022-08-28T07:44:24.332Z,96223.84
2022-08-28T07:46:54.858Z,96223.53
2022-08-28T07:49:22.765Z,96220.56
2022-08-28T07:51:50.373Z,96234.81
2022-08-28T07:54:21.949Z,96227.81
2022-08-28T07:56:51.572Z,96225.03
2022-08-28T07:59:20.168Z,96227.66
2022-08-28T08:01:50.647Z,96227.44
2022-08-28T08:04:19.928Z,96226.09
2022-08-28T08:06:47.825Z,96233.34
2022-08-28T08:09:17.660Z,96232.50
2022-08-28T08:11:45.833Z,96237.41
2022-08-28T08:14:16.408Z,96236.47
2022-08-28T08:16:46.939Z,96248.38
2022-08-28T08:19:15.310Z,96237.91
2022-08-28T08:21:44.447Z,96248.91
2022-08-28T08:24:19.716Z,96244.22
2022-08-28T08:26:56.566Z,96248.88
2022-08-28T08:29:32.206Z,96246.59
2022-08-28T08:32:05.266Z,96244.81
2022-08-28T08:34:33.836Z,96250.66
2022-08-28T08:37:01.569Z,96251.00
2022-08-28T08:39:29.255Z,96247.66
2022-08-28T08:42:00.744Z,96256.03
2022-08-28T08:44:33.485Z,96247.81
2022-08-28T08:47:13.797Z,96250.94
2022-08-28T08:49:48.340Z,96257.22
2022-08-28T08:52:28.191Z,96251.88
2022-08-28T08:55:07.109Z,96257.63
2022-08-28T08:57:37.004Z,96259.13
2022-08-28T09:00:11.190Z,96260.31
2022-08-28T09:02:46.265Z,96263.44
2022-08-28T09:05:19.048Z,96263.16
2022-08-28T09:07:56.660Z,96268.13
2022-08-28T09:10:26.579Z,96272.53
2022-08-28T09:12:58.172Z,96267.56
2022-08-28T09:15:32.077Z,96275.09
2022-08-28T09:18:12.065Z,96278.00
2022-08-28T09:20:39.950Z,96282.81
2022-08-28T09:23:13.407Z,96282.63
2022-08-28T09:25:59.757Z,96277.47
2022-08-28T09:28:32.456Z,96278.28
2022-08-28T09:31:07.398Z,96279.34
2022-08-28T09:33:41.703Z,96282.16
2022-08-28T09:36:29.888Z,96290.47
2022-08-28T09:39:13.754Z,96277.91
2022-08-28T09:42:14.885Z,96292.31
2022-08-28T09:44:52.056Z,96292.69
2022-08-28T09:47:48.778Z,96293.13
2022-08-28T09:50:26.180Z,96294.25
2022-08-28T09:52:58.874Z,96301.59
2022-08-28T09:55:34.745Z,96288.72
2022-08-28T09:58:04.942Z,96300.84
2022-08-28T10:00:37.860Z,96299.81
2022-08-28T10:03:15.461Z,96297.91
2022-08-28T10:05:55.301Z,96304.84
2022-08-28T10:08:37.103Z,96302.47
2022-08-28T10:11:15.465Z,96306.50
2022-08-28T10:14:03.438Z,96304.78
2022-08-28T10:16:41.600Z,96303.28
2022-08-28T10:19:23.379Z,96309.03
2022-08-28T10:22:04.984Z,96302.19
2022-08-28T10:24:48.056Z,96301.00
2022-08-28T10:27:33.540Z,96300.50
2022-08-28T10:30:11.286Z,96299.94
2022-08-28T10:32:52.458Z,96303.13
2022-08-28T10:35:25.387Z,96292.00
2022-08-28T10:38:01.577Z,96291.25
2022-08-28T10:40:34.669Z,96297.94
2022-08-28T10:43:06.908Z,96294.63
2022-08-28T10:45:35.724Z,96307.19
2022-08-28T10:48:10.167Z,96300.59
2022-08-28T10:50:45.124Z,96299.78
2022-08-28T10:53:16.480Z,96301.25
2022-08-28T10:55:52.310Z,96305.50
2022-08-28T10:58:24.312Z,96304.22
2022-08-28T11:00:56.090Z,96304.09
2022-08-28T11:03:35.026Z,96303.16
2022-08-28T11:06:11.241Z,96304.38
2022-08-28T11:08:40.525Z,96302.94
2022-08-28T11:11:14.342Z,96301.28
2022-08-28T11:13:47.687Z,96310.38
2022-08-28T11:16:21.429Z,96306.25
2022-08-28T11:19:20.416Z,96307.75
2022-08-28T11:21:52.982Z,96306.81
2022-08-28T11:24:32.849Z,96300.09
2022-08-28T11:27:12.980Z,96306.00
2022-08-28T11:30:04.914Z,96296.94
2022-08-28T11:32:56.062Z,96299.94
2022-08-28T11:35:53.590Z,96302.91
2022-08-28T11:39:13.417Z,96303.38
2022-08-28T11:42:32.033Z,96302.53
2022-08-28T11:44:59.734Z,96306.69
2022-08-28T11:47:56.653Z,96308.16
2022-08-28T11:50:32.090Z,96297.59
2022-08-28T11:53:44.214Z,96294.50
2022-08-28T11:56:45.464Z,96296.56
2022-08-28T11:59:35.037Z,96293.25
2022-08-28T12:02:36.896Z,96291.03
2022-08-28T12:05:06.222Z,96295.44
2022-08-28T12:07:36.647Z,96294.19
2022-08-28T12:10:44.572Z,96293.06
2022-08-28T12:13:48.973Z,96297.28
2022-08-28T12:16:16.719Z,96297.13
2022-08-28T12:19:01.140Z,96302.34
2022-08-28T12:21:31.024Z,96285.13
2022-08-28T12:24:07.341Z,96293.56
2022-08-28T12:26:44.517Z,96287.41
2022-08-28T12:29:31.544Z,96292.66
2022-08-28T12:32:18.889Z,96287.03
2022-08-28T12:34:50.330Z,96293.47
2022-08-28T12:37:39.503Z,96298.78
2022-08-28T12:40:22.938Z,96299.78
2022-08-28T12:42:55.483Z,96294.03
2022-08-28T12:45:28.795Z,96290.91
2022-08-28T12:48:00.045Z,96290.88
2022-08-28T12:50:31.572Z,96288.41
2022-08-28T12:53:06.333Z,96291.91
2022-08-28T12:55:34.872Z,96293.84
2022-08-28T12:58:02.568Z,96291.19
2022-08-28T13:00:35.658Z,96278.19
2022-08-28T13:03:08.088Z,96288.13
2022-08-28T13:05:39.630Z,96284.78
2022-08-28T13:08:10.695Z,96288.44
2022-08-28T13:10:41.364Z,96286.38
2022-08-28T13:13:19.056Z,96280.41
2022-08-28T13:15:52.609Z,96283.22
2022-08-28T13:18:51.439Z,96282.81
2022-08-28T13:21:37.205Z,96291.03
2022-08-28T13:24:27.449Z,96284.31
2022-08-28T13:27:06.768Z,96285.19
2022-08-28T13:29:35.379Z,96273.09
2022-08-28T13:32:07.781Z,96285.25
2022-08-28T13:34:37.073Z,96279.22
2022-08-28T13:37:14.706Z,96275.19
2022-08-28T13:39:48.396Z,96269.84
2022-08-28T13:42:18.309Z,96277.19
2022-08-28T13:44:48.525Z,96262.63
2022-08-28T13:47:17.955Z,96266.28
2022-08-28T13:49:45.733Z,96255.84
2022-08-28T13:52:13.900Z,96269.00
2022-08-28T13:54:43.735Z,96261.94
2022-08-28T13:57:13.609Z,96267.06
2022-08-28T13:59:41.552Z,96274.31
2022-08-28T14:02:30.468Z,96271.22
2022-08-28T14:04:59.426Z,96268.22
2022-08-28T14:07:27.019Z,96263.63
2022-08-28T14:09:56.531Z,96263.72
2022-08-28T14:12:32.849Z,96257.91
2022-08-28T14:15:01.554Z,96257.78
2022-08-28T14:17:29.149Z,96261.22
2022-08-28T14:19:56.687Z,96266.19
2022-08-28T14:22:25.521Z,96272.28
2022-08-28T14:24:53.115Z,96271.69
2022-08-28T14:27:20.870Z,96274.13
2022-08-28T14:29:49.057Z,96267.06
2022-08-28T14:32:16.650Z,96271.38
2022-08-28T14:34:44.265Z,96271.53
2022-08-28T14:37:11.770Z,96267.41
2022-08-28T14:39:42.020Z,96271.78
2022-08-28T14:42:13.064Z,96273.19
2022-08-28T14:44:40.952Z,96268.47
2022-08-28T14:47:08.709Z,96274.81
2022-08-28T14:49:36.208Z,96266.25
2022-08-28T14:52:04.594Z,96267.66
2022-08-28T14:54:32.207Z,96267.63
2022-08-28T14:57:01.056Z,96268.78
2022-08-28T14:59:31.055Z,96270.13
2022-08-28T15:02:00.249Z,96269.56
2022-08-28T15:04:34.282Z,96262.22
2022-08-28T15:07:05.432Z,96266.41
2022-08-28T15:09:36.725Z,96270.41
2022-08-28T15:12:06.148Z,96265.31
2022-08-28T15:14:33.678Z,96262.44
2022-08-28T15:17:01.315Z,96264.63
2022-08-28T15:19:30.063Z,96261.31
2022-08-28T15:21:58.575Z,96269.66
2022-08-28T15:24:30.748Z,96258.53
2022-08-28T15:26:59.631Z,96265.19
2022-08-28T15:29:29.909Z,96259.75
2022-08-28T15:31:59.034Z,96268.09
2022-08-28T15:34:29.106Z,96268.03
2022-08-28T15:36:58.014Z,96263.75
2022-08-28T15:39:43.899Z,96250.59
2022-08-28T15:42:11.416Z,96258.97
2022-08-28T15:44:40.301Z,96259.41
2022-08-28T15:47:08.621Z,96260.50
2022-08-28T15:49:43.692Z,96262.22
2022-08-28T15:52:18.192Z,96258.28
2022-08-28T15:54:45.745Z,96260.13
2022-08-28T15:57:13.400Z,96252.81
2022-08-28T15:59:49.422Z,96251.94
2022-08-28T16:02:18.832Z,96256.47
2022-08-28T16:04:46.503Z,96259.56
2022-08-28T16:07:14.001Z,96249.03
2022-08-28T16:09:41.504Z,96246.53
2022-08-28T16:12:12.495Z,96248.94
2022-08-28T16:14:40.210Z,96246.97
2022-08-28T16:17:11.169Z,96245.72
2022-08-28T16:19:57.721Z,96253.38
2022-08-28T16:22:25.258Z,96246.28
2022-08-28T16:24:52.774Z,96251.72
2022-08-28T16:27:20.599Z,96249.09
2022-08-28T16:29:52.812Z,96254.19
2022-08-28T16:32:22.925Z,96253.91
2022-08-28T16:34:50.613Z,96244.41
2022-08-28T16:37:19.597Z,96254.81
2022-08-28T16:39:48.643Z,96246.72
2022-08-28T16:42:17.239Z,96246.72
2022-08-28T16:44:44.736Z,96241.41
2022-08-28T16:47:12.306Z,96249.13
2022-08-28T16:49:41.199Z,96255.78
2022-08-28T16:52:08.763Z,96249.28
2022-08-28T16:54:36.240Z,96253.06
2022-08-28T16:57:03.745Z,96265.25
2022-08-28T16:59:31.232Z,96257.25
2022-08-28T17:01:58.802Z,96264.47
2022-08-28T17:04:26.466Z,96267.50
2022-08-28T17:06:56.361Z,96262.47
2022-08-28T17:09:24.865Z,96264.44
2022-08-28T17:11:52.535Z,96267.28
2022-08-28T17:14:20.655Z,96264.91
2022-08-28T17:16:48.702Z,96275.16
2022-08-28T17:19:16.339Z,96286.81
2022-08-28T17:22:01.879Z,96276.31
2022-08-28T17:24:30.975Z,96283.16
2022-08-28T17:27:00.925Z,96279.03
2022-08-28T17:29:32.201Z,96278.06
2022-08-28T17:31:59.729Z,96276.44
2022-08-28T17:34:30.291Z,96287.13
2022-08-28T17:36:58.141Z,96279.38
2022-08-28T17:39:25.807Z,96288.19
2022-08-28T17:41:54.724Z,96286.19
2022-08-28T17:44:22.232Z,96292.88
2022-08-28T17:46:51.709Z,96291.84
2022-08-28T17:49:19.301Z,96301.78
2022-08-28T17:51:46.864Z,96299.66
2022-08-28T17:54:16.704Z,96302.44
2022-08-28T17:56:44.876Z,96305.72
2022-08-28T17:59:14.485Z,96299.22
2022-08-28T18:01:43.262Z,96303.69
2022-08-28T18:04:11.437Z,96310.66
2022-08-28T18:06:39.364Z,96317.19
2022-08-28T18:09:07.721Z,96315.81
2022-08-28T18:11:35.448Z,96318.75
2022-08-28T18:14:03.228Z,96326.53
2022-08-28T18:16:34.323Z,96327.50
2022-08-28T18:19:02.593Z,96326.91
2022-08-28T18:21:30.380Z,96321.03
2022-08-28T18:23:58.558Z,96326.16
2022-08-28T18:26:26.389Z,96335.72
2022-08-28T18:28:54.204Z,96335.75
2022-08-28T18:31:21.786Z,96345.94
2022-08-28T18:33:50.901Z,96348.84
2022-08-28T18:36:18.826Z,96351.53
2022-08-28T18:38:47.123Z,96345.84
2022-08-28T18:41:14.665Z,96353.19
2022-08-28T18:43:42.419Z,96357.47
2022-08-28T18:46:10.441Z,96358.81
2022-08-28T18:48:38.753Z,96356.00
2022-08-28T18:51:08.594Z,96362.00
2022-08-28T18:53:36.492Z,96361.28
2022-08-28T18:56:05.383Z,96369.38
2022-08-28T18:58:33.043Z,96369.28
2022-08-28T19:01:02.114Z,96367.69
2022-08-28T19:03:29.744Z,96367.78
2022-08-28T19:05:57.493Z,96371.31
2022-08-28T19:08:27.281Z,96376.78
2022-08-28T19:10:55.058Z,96367.31
2022-08-28T19:13:23.247Z,96376.03
2022-08-28T19:15:52.443Z,96371.84
2022-08-28T19:18:20.291Z,96371.22
2022-08-28T19:20:48.049Z,96383.19
2022-08-28T19:23:17.831Z,96376.78
2022-08-28T19:25:48.378Z,96387.16
2022-08-28T19:28:16.022Z,96384.31
2022-08-28T19:30:43.674Z,96391.78
2022-08-28T19:33:12.546Z,96392.53
2022-08-28T19:35:40.061Z,96388.59
2022-08-28T19:38:07.611Z,96392.09
2022-08-28T19:40:35.524Z,96403.50
2022-08-28T19:43:05.451Z,96397.31
2022-08-28T19:45:34.037Z,96401.91
2022-08-28T19:48:01.735Z,96410.19
2022-08-28T19:50:29.278Z,96410.00
2022-08-28T19:52:56.808Z,96411.41
2022-08-28T19:55:28.771Z,96409.91
2022-08-28T19:57:56.634Z,96413.84
2022-08-28T20:00:29.160Z,96413.63
2022-08-28T20:02:57.723Z,96414.66
2022-08-28T20:05:25.946Z,96422.97
2022-08-28T20:07:53.439Z,96423.25
2022-08-28T20:10:21.361Z,96419.50
2022-08-28T20:12:49.012Z,96420.69
2022-08-28T20:15:18.611Z,96425.50
2022-08-28T20:17:49.967Z,96428.97
2022-08-28T20:20:19.337Z,96424.38
2022-08-28T20:22:47.368Z,96428.09
2022-08-28T20:25:15.628Z,96427.31
2022-08-28T20:27:43.187Z,96422.38
2022-08-28T20:30:12.210Z,96423.19
2022-08-28T20:32:41.260Z,96416.97
2022-08-28T20:35:12.855Z,96429.25
2022-08-28T20:37:44.772Z,96423.97
2022-08-28T20:40:15.852Z,96423.59
2022-08-28T20:42:43.786Z,96423.91
2022-08-28T20:45:12.585Z,96421.38
2022-08-28T20:47:40.152Z,96426.66
2022-08-28T20:50:08.674Z,96432.75
2022-08-28T20:52:37.642Z,96433.56
2022-08-28T20:55:07.516Z,96433.47
2022-08-28T20:57:35.117Z,96428.03
2022-08-28T21:00:05.638Z,96432.09
2022-08-28T21:02:33.539Z,96433.66
2022-08-28T21:05:01.605Z,96431.56
2022-08-28T21:07:29.271Z,96439.06
2022-08-28T21:10:05.761Z,96438.09
2022-08-28T21:12:35.632Z,96430.59
2022-08-28T21:15:03.507Z,96434.34
2022-08-28T21:17:31.175Z,96436.53
2022-08-28T21:20:01.036Z,96442.53
2022-08-28T21:22:30.100Z,96435.31
2022-08-28T21:24:59.468Z,96431.31
2022-08-28T21:27:27.003Z,96438.72
2022-08-28T21:29:56.075Z,96439.00
2022-08-28T21:32:23.588Z,96438.75
2022-08-28T21:34:51.258Z,96440.88
2022-08-28T21:37:18.764Z,96442.16
2022-08-28T21:39:46.273Z,96450.91
2022-08-28T21:42:15.191Z,96440.88
2022-08-28T21:44:51.647Z,96442.91
2022-08-28T21:47:21.241Z,96442.25
2022-08-28T21:49:49.329Z,96446.13
2022-08-28T21:52:16.864Z,96448.97
2022-08-28T21:54:44.398Z,96440.63
2022-08-28T21:57:12.210Z,96439.00
2022-08-28T21:59:41.394Z,96445.81
2022-08-28T22:02:08.950Z,96443.97
2022-08-28T22:04:36.916Z,96436.47
2022-08-28T22:07:04.474Z,96442.34
2022-08-28T22:09:31.997Z,96437.91
2022-08-28T22:11:59.562Z,96446.41
2022-08-28T22:14:28.458Z,96450.91
2022-08-28T22:16:57.573Z,96453.06
2022-08-28T22:19:25.106Z,96455.94
2022-08-28T22:22:10.156Z,96454.00
2022-08-28T22:24:37.952Z,96458.88
2022-08-28T22:27:06.106Z,96454.38
2022-08-28T22:29:36.486Z,96459.78
2022-08-28T22:32:06.719Z,96467.13
2022-08-28T22:34:38.626Z,96470.88
2022-08-28T22:37:06.299Z,96473.81
2022-08-28T22:39:33.890Z,96471.97
2022-08-28T22:42:01.801Z,96470.50
2022-08-28T22:44:29.532Z,96475.91
2022-08-28T22:46:57.128Z,96473.25
2022-08-28T22:49:26.104Z,96470.97
2022-08-28T22:51:53.706Z,96476.94
2022-08-28T22:54:21.431Z,96477.56
2022-08-28T22:56:48.965Z,96481.50
2022-08-28T22:59:16.624Z,96476.56
2022-08-28T23:01:44.175Z,96475.88
2022-08-28T23:04:12.194Z,96481.31
2022-08-28T23:06:41.080Z,96484.00
2022-08-28T23:09:09.452Z,96476.75
2022-08-28T23:11:37.972Z,96471.34
2022-08-28T23:14:06.418Z,96479.81
2022-08-28T23:16:35.370Z,96477.56
2022-08-28T23:19:13.376Z,96481.06
2022-08-28T23:21:44.254Z,96482.75
2022-08-28T23:24:12.527Z,96476.75
2022-08-28T23:26:40.208Z,96473.44
2022-08-28T23:29:07.739Z,96468.50
2022-08-28T23:31:35.709Z,96481.28
2022-08-28T23:34:03.313Z,96465.72
2022-08-28T23:36:32.750Z,96467.16
2022-08-28T23:39:04.913Z,96470.13
2022-08-28T23:41:33.095Z,96469.69
2022-08-28T23:44:03.199Z,96470.66
2022-08-28T23:46:33.557Z,96472.94
2022-08-28T23:49:01.154Z,96465.34
2022-08-28T23:51:29.516Z,96464.25
2022-08-28T23:53:57.051Z,96457.66
2022-08-28T23:56:28.235Z,96459.38
2022-08-28T23:58:55.927Z,96462.22
